createdAt,value
2023-05-24T00:01:11.892Z,2.53
2023-05-24T00:06:13.457Z,2.70
2023-05-24T00:11:15.019Z,2.60
2023-05-24T00:16:16.644Z,2.95
2023-05-24T00:21:18.260Z,2.97
2023-05-24T00:26:19.840Z,2.67
2023-05-24T00:31:21.532Z,2.70
2023-05-24T00:36:23.076Z,3.05
2023-05-24T00:41:24.764Z,2.75
2023-05-24T00:46:28.878Z,3.08
2023-05-24T00:51:32.618Z,2.85
2023-05-24T00:56:35.825Z,3.38
2023-05-24T01:01:37.490Z,2.97
2023-05-24T01:06:46.168Z,2.90
2023-05-24T01:11:59.814Z,3.40
2023-05-24T01:17:06.821Z,2.83
2023-05-24T01:22:34.167Z,2.90
2023-05-24T01:27:37.478Z,2.63
2023-05-24T01:32:39.167Z,3.15
2023-05-24T01:37:40.828Z,2.88
2023-05-24T01:42:51.428Z,3.20
2023-05-24T01:47:53.189Z,3.22
2023-05-24T01:52:55.488Z,2.75
2023-05-24T01:58:00.855Z,3.25
2023-05-24T02:03:03.529Z,2.90
2023-05-24T02:08:05.282Z,2.92
2023-05-24T02:13:07.416Z,2.85
2023-05-24T02:18:09.194Z,3.60
2023-05-24T02:23:10.766Z,3.15
2023-05-24T02:28:12.404Z,3.20
2023-05-24T02:33:14.239Z,3.22
2023-05-24T02:38:15.892Z,3.03
2023-05-24T02:43:17.492Z,2.90
2023-05-24T02:48:19.199Z,3.25
2023-05-24T02:53:21.763Z,3.33
2023-05-24T02:58:23.471Z,3.08
2023-05-24T03:03:25.188Z,2.70
2023-05-24T03:08:26.834Z,3.05
2023-05-24T03:13:28.392Z,3.75
2023-05-24T03:18:29.938Z,3.47
2023-05-24T03:23:31.495Z,3.42
2023-05-24T03:28:34.011Z,3.85
2023-05-24T03:33:35.633Z,3.60
2023-05-24T03:38:37.163Z,3.72
2023-05-24T03:43:38.746Z,4.25
2023-05-24T03:48:40.837Z,4.30
2023-05-24T03:53:42.451Z,3.95
2023-05-24T03:58:43.967Z,4.18
2023-05-24T04:03:46.260Z,4.53
2023-05-24T04:08:47.977Z,4.13
2023-05-24T04:13:51.285Z,4.03
2023-05-24T04:18:53.541Z,4.28
2023-05-24T04:23:56.210Z,3.85
2023-05-24T04:28:58.324Z,4.57
2023-05-24T04:34:00.048Z,4.35
2023-05-24T04:39:04.952Z,4.43
2023-05-24T04:44:07.613Z,4.57
2023-05-24T04:49:09.660Z,4.68
2023-05-24T04:54:11.475Z,4.75
2023-05-24T04:59:13.123Z,4.38
2023-05-24T05:04:14.768Z,4.00
2023-05-24T05:09:16.621Z,3.90
2023-05-24T05:14:18.358Z,3.97
2023-05-24T05:19:20.224Z,3.80
2023-05-24T05:24:22.099Z,3.38
2023-05-24T05:29:24.537Z,3.78
2023-05-24T05:34:26.342Z,3.90
2023-05-24T05:39:27.895Z,4.03
2023-05-24T05:44:29.482Z,3.85
2023-05-24T05:49:31.873Z,3.67
2023-05-24T05:54:33.553Z,3.30
2023-05-24T05:59:36.426Z,3.45
2023-05-24T06:04:38.063Z,3.08
2023-05-24T06:09:39.713Z,2.78
2023-05-24T06:14:41.258Z,2.88
2023-05-24T06:19:43.725Z,3.15
2023-05-24T06:24:45.591Z,2.85
2023-05-24T06:29:47.331Z,3.38
2023-05-24T06:34:48.960Z,3.20
2023-05-24T06:39:50.672Z,2.53
2023-05-24T06:44:52.262Z,3.15
2023-05-24T06:49:53.942Z,3.20
2023-05-24T06:54:55.551Z,2.40
2023-05-24T06:59:57.383Z,3.20
2023-05-24T07:04:59.020Z,2.67
2023-05-24T07:10:00.644Z,3.22
2023-05-24T07:15:02.599Z,2.65
2023-05-24T07:20:07.341Z,2.28
2023-05-24T07:25:09.368Z,2.50
2023-05-24T07:30:23.757Z,2.28
2023-05-24T07:35:33.090Z,2.08
2023-05-24T07:40:35.042Z,2.25
2023-05-24T07:45:36.708Z,2.25
2023-05-24T07:50:39.050Z,2.25
2023-05-24T07:55:41.194Z,1.98
2023-05-24T08:00:42.948Z,1.88
2023-05-24T08:05:44.768Z,1.83
2023-05-24T08:10:46.532Z,2.45
2023-05-24T08:15:48.490Z,2.40
2023-05-24T08:20:50.172Z,1.63
2023-05-24T08:25:51.865Z,2.58
2023-05-24T08:30:53.447Z,1.67
2023-05-24T08:35:55.043Z,2.35
2023-05-24T08:40:56.727Z,2.40
2023-05-24T08:45:59.234Z,2.25
2023-05-24T08:51:01.239Z,2.25
2023-05-24T08:56:03.620Z,2.22
2023-05-24T09:01:07.493Z,2.20
2023-05-24T09:06:09.508Z,2.45
2023-05-24T09:11:11.626Z,2.20
2023-05-24T09:16:13.322Z,2.10
2023-05-24T09:21:15.095Z,2.20
2023-05-24T09:26:17.266Z,2.83
2023-05-24T09:31:18.880Z,2.47
2023-05-24T09:36:20.560Z,2.55
2023-05-24T09:41:22.217Z,2.13
2023-05-24T09:46:23.916Z,2.65
2023-05-24T09:51:26.260Z,1.92
2023-05-24T09:56:28.169Z,2.03
2023-05-24T10:01:30.149Z,2.33
2023-05-24T10:06:35.297Z,1.75
2023-05-24T10:11:40.103Z,2.20
2023-05-24T10:16:41.780Z,1.80
2023-05-24T10:21:43.683Z,2.00
2023-05-24T10:26:48.817Z,1.65
2023-05-24T10:31:52.262Z,1.98
2023-05-24T10:36:54.169Z,1.90
2023-05-24T10:42:02.988Z,2.05
2023-05-24T10:47:04.683Z,1.85
2023-05-24T10:52:10.143Z,2.20
2023-05-24T10:57:12.115Z,1.80
2023-05-24T11:02:15.230Z,1.70
2023-05-24T11:07:19.368Z,1.90
2023-05-24T11:12:21.027Z,1.33
2023-05-24T11:17:23.486Z,2.05
2023-05-24T11:22:25.881Z,2.10
2023-05-24T11:27:27.944Z,1.65
2023-05-24T11:32:29.591Z,2.15
2023-05-24T11:37:45.488Z,1.58
2023-05-24T11:42:47.880Z,1.95
2023-05-24T11:47:50.483Z,1.77
2023-05-24T11:52:52.056Z,1.70
2023-05-24T11:57:56.036Z,2.10
2023-05-24T12:03:01.786Z,1.90
2023-05-24T12:08:06.017Z,1.77
2023-05-24T12:13:18.250Z,2.10
2023-05-24T12:18:20.438Z,1.90
2023-05-24T12:23:27.696Z,2.03
2023-05-24T12:28:39.263Z,2.30
2023-05-24T12:33:40.903Z,1.98
2023-05-24T12:38:42.478Z,2.15
2023-05-24T12:43:44.773Z,2.22
2023-05-24T12:48:46.688Z,1.83
2023-05-24T12:53:48.236Z,1.88
2023-05-24T12:58:50.009Z,2.00
2023-05-24T13:03:52.271Z,1.90
2023-05-24T13:08:54.059Z,1.95
2023-05-24T13:13:55.618Z,1.92
2023-05-24T13:18:57.306Z,2.17
2023-05-24T13:23:59.415Z,1.83
2023-05-24T13:34:06.032Z,1.85
2023-05-24T13:44:15.399Z,1.70
2023-05-24T13:49:17.395Z,1.70
2023-05-24T13:54:19.132Z,2.00
2023-05-24T13:59:20.724Z,1.98
2023-05-24T14:04:22.376Z,1.88
2023-05-24T14:09:24.031Z,2.25
2023-05-24T14:19:30.169Z,1.88
2023-05-24T14:24:31.755Z,2.20
2023-05-24T14:29:33.550Z,1.75
2023-05-24T14:34:35.099Z,1.95
2023-05-24T14:39:36.666Z,2.05
2023-05-24T14:44:38.400Z,1.85
2023-05-24T14:49:40.476Z,1.80
2023-05-24T14:54:42.212Z,1.92
2023-05-24T14:59:43.805Z,1.70
2023-05-24T15:04:45.465Z,1.70
2023-05-24T15:09:47.121Z,2.13
2023-05-24T15:14:48.909Z,1.65
2023-05-24T15:19:50.455Z,1.73
2023-05-24T15:24:52.143Z,1.65
2023-05-24T15:29:58.874Z,1.98
2023-05-24T15:35:00.659Z,1.92
2023-05-24T15:40:02.238Z,1.80
2023-05-24T15:45:03.937Z,1.95
2023-05-24T15:50:06.945Z,1.60
2023-05-24T15:55:08.847Z,1.92
2023-05-24T16:00:10.813Z,1.70
2023-05-24T16:05:12.407Z,1.67
2023-05-24T16:10:14.291Z,2.58
2023-05-24T16:15:16.020Z,1.92
2023-05-24T16:20:17.600Z,1.60
2023-05-24T16:25:19.274Z,1.75
2023-05-24T16:30:20.850Z,2.25
2023-05-24T16:35:22.499Z,1.50
2023-05-24T16:40:24.091Z,2.08
2023-05-24T16:45:25.652Z,1.92
2023-05-24T16:50:27.418Z,1.55
2023-05-24T16:55:29.110Z,1.92
2023-05-24T17:00:30.669Z,1.60
2023-05-24T17:05:32.229Z,1.80
2023-05-24T17:10:34.086Z,2.00
2023-05-24T17:15:35.617Z,1.65
2023-05-24T17:20:37.326Z,1.90
2023-05-24T17:25:38.988Z,1.77
2023-05-24T17:30:40.632Z,2.03
2023-05-24T17:35:43.252Z,2.00
2023-05-24T17:40:45.401Z,1.80
2023-05-24T17:45:47.013Z,1.95
2023-05-24T17:50:48.922Z,1.75
2023-05-24T17:55:51.036Z,1.77
2023-05-24T18:00:52.848Z,1.88
2023-05-24T18:05:54.501Z,2.03
2023-05-24T18:10:56.410Z,2.00
2023-05-24T18:15:58.149Z,1.80
2023-05-24T18:20:59.775Z,1.90
2023-05-24T18:26:03.026Z,2.15
2023-05-24T18:31:10.317Z,1.95
2023-05-24T18:36:12.871Z,1.80
2023-05-24T18:41:15.095Z,2.28
2023-05-24T18:46:16.722Z,1.75
2023-05-24T18:51:18.686Z,1.90
2023-05-24T18:56:20.365Z,2.03
2023-05-24T19:01:22.011Z,1.60
2023-05-24T19:06:23.711Z,1.60
2023-05-24T19:11:25.250Z,1.60
2023-05-24T19:16:27.037Z,1.73
2023-05-24T19:21:28.650Z,1.90
2023-05-24T19:26:30.222Z,2.03
2023-05-24T19:31:35.869Z,1.77
2023-05-24T19:36:37.504Z,1.98
2023-05-24T19:41:39.134Z,1.80
2023-05-24T19:46:40.780Z,2.13
2023-05-24T19:51:42.763Z,2.28
2023-05-24T19:56:44.393Z,2.70
2023-05-24T20:01:46.136Z,2.10
2023-05-24T20:06:47.772Z,2.10
2023-05-24T20:11:49.372Z,2.15
2023-05-24T20:16:51.076Z,2.08
2023-05-24T20:21:52.902Z,2.25
2023-05-24T20:26:54.438Z,2.40
2023-05-24T20:31:56.189Z,1.83
2023-05-24T20:36:57.781Z,2.38
2023-05-24T20:41:59.389Z,2.38
2023-05-24T20:47:01.203Z,2.10
2023-05-24T20:52:03.014Z,1.80
2023-05-24T20:57:04.713Z,2.55
2023-05-24T21:02:06.515Z,1.92
2023-05-24T21:07:08.261Z,2.13
2023-05-24T21:12:09.897Z,2.70
2023-05-24T21:17:11.637Z,2.40
2023-05-24T21:22:13.569Z,2.25
2023-05-24T21:27:15.245Z,2.47
2023-05-24T21:32:16.820Z,2.30
2023-05-24T21:37:18.406Z,1.88
2023-05-24T21:42:19.952Z,2.20
2023-05-24T21:47:21.635Z,2.47
2023-05-24T21:52:23.630Z,2.28
2023-05-24T21:57:26.545Z,2.33
2023-05-24T22:02:29.098Z,2.50
2023-05-24T22:07:30.796Z,2.28
2023-05-24T22:12:32.514Z,2.40
2023-05-24T22:17:37.131Z,2.15
2023-05-24T22:22:48.325Z,2.30
2023-05-24T22:27:50.288Z,2.42
2023-05-24T22:32:51.990Z,2.30
2023-05-24T22:37:53.557Z,2.75
2023-05-24T22:42:55.133Z,2.85
2023-05-24T22:47:58.618Z,3.00
2023-05-24T22:53:00.443Z,2.85
2023-05-24T22:58:01.986Z,2.55
2023-05-24T23:03:03.548Z,3.17
2023-05-24T23:08:05.138Z,2.58
2023-05-24T23:13:06.780Z,2.33
2023-05-24T23:18:10.208Z,2.90
2023-05-24T23:23:12.439Z,2.70
2023-05-24T23:28:14.178Z,2.80
2023-05-24T23:33:15.768Z,2.67
2023-05-24T23:38:17.500Z,2.95
2023-05-24T23:43:19.055Z,3.42
2023-05-24T23:48:21.010Z,2.85
2023-05-24T23:53:22.689Z,2.40
2023-05-24T23:58:24.573Z,2.75
